Time;durP1;ratioP1;P1;durP2;ratioP2;P2;SDS_P1;SDS_P2;PMS_P1;PMS_P2;Temp;Humidity;BMP_temperature;BMP_pressure;BME280_temperature;BME280_humidity;BME280_pressure;Samples;Min_cycle;Max_cycle;Signal;HPM_P1;HPM_P2
2021/11/15 00:01:52;;;;;;;286.23;55.67;;;8.00;99.90;;;;;;6214581;23;20905;-77
2021/11/15 00:04:22;;;;;;;236.27;52.47;;;8.00;99.90;;;;;;6214409;23;20442;-78
2021/11/15 00:06:51;;;;;;;204.33;49.07;;;8.00;99.90;;;;;;6214595;23;20429;-78
2021/11/15 00:09:20;;;;;;;352.97;55.80;;;8.00;99.90;;;;;;6214692;23;20897;-78
2021/11/15 00:11:48;;;;;;;265.93;55.57;;;7.90;99.90;;;;;;6215929;23;20462;-78
2021/11/15 00:14:17;;;;;;;163.63;44.50;;;7.90;99.90;;;;;;6214614;23;20440;-78
2021/11/15 00:16:45;;;;;;;271.00;57.23;;;7.90;99.90;;;;;;6214547;23;20509;-78
2021/11/15 00:19:14;;;;;;;254.83;57.17;;;7.90;99.90;;;;;;6214421;23;20425;-78
2021/11/15 00:21:42;;;;;;;258.67;65.20;;;7.90;99.90;;;;;;6215753;23;20711;-77
2021/11/15 00:24:10;;;;;;;306.23;57.50;;;7.90;99.90;;;;;;6214267;23;20431;-78
2021/11/15 00:26:39;;;;;;;235.93;54.43;;;7.90;99.90;;;;;;6214689;23;20424;-78
2021/11/15 00:29:07;;;;;;;190.97;49.33;;;7.90;99.90;;;;;;6214378;23;20744;-78
2021/11/15 00:31:37;;;;;;;244.63;55.07;;;7.90;99.90;;;;;;6216412;23;20520;-78
2021/11/15 00:34:05;;;;;;;202.77;45.33;;;7.90;99.90;;;;;;6225993;23;20477;-78
2021/11/15 00:36:33;;;;;;;231.30;53.30;;;7.90;99.90;;;;;;6214387;23;20425;-78
2021/11/15 00:39:01;;;;;;;354.00;68.83;;;7.90;99.90;;;;;;6214528;23;20511;-78
2021/11/15 00:41:30;;;;;;;239.93;50.53;;;7.90;99.90;;;;;;6214402;23;20500;-78
2021/11/15 00:43:58;;;;;;;135.97;47.93;;;7.90;99.90;;;;;;6214316;23;20925;-77
2021/11/15 00:46:26;;;;;;;277.57;56.60;;;7.90;99.90;;;;;;6214677;23;20447;-78
2021/11/15 00:48:56;;;;;;;311.57;60.43;;;7.90;99.90;;;;;;6214303;23;20514;-78
2021/11/15 00:51:24;;;;;;;202.20;44.33;;;7.90;99.90;;;;;;6217093;23;20425;-78
2021/11/15 00:53:53;;;;;;;304.37;64.53;;;7.90;99.90;;;;;;6214343;23;20456;-78
2021/11/15 00:56:21;;;;;;;222.73;55.17;;;7.90;99.90;;;;;;6225951;23;20394;-78
2021/11/15 00:58:50;;;;;;;146.97;45.10;;;7.90;99.90;;;;;;6214570;23;20816;-78
2021/11/15 01:01:18;;;;;;;175.83;48.43;;;7.90;99.90;;;;;;6214279;23;20422;-78
2021/11/15 01:03:47;;;;;;;177.40;52.40;;;7.80;99.90;;;;;;6214522;23;20944;-78
2021/11/15 01:06:17;;;;;;;245.87;48.17;;;7.90;99.90;;;;;;6213836;23;20467;-78
2021/11/15 01:08:46;;;;;;;187.40;48.13;;;7.90;99.90;;;;;;6214107;23;20411;-77
2021/11/15 01:11:14;;;;;;;225.63;50.40;;;7.90;99.90;;;;;;6214057;23;20433;-78
2021/11/15 01:13:43;;;;;;;176.57;51.90;;;7.90;99.90;;;;;;6214122;23;20441;-77
2021/11/15 01:16:11;;;;;;;291.70;56.83;;;7.80;99.90;;;;;;6214337;23;20416;-78
2021/11/15 01:18:43;;;;;;;259.27;53.87;;;7.80;99.90;;;;;;6214270;23;20422;-78
2021/11/15 01:21:12;;;;;;;254.17;55.73;;;7.80;99.90;;;;;;6214207;23;20924;-78
2021/11/15 01:23:43;;;;;;;112.67;43.47;;;7.80;99.90;;;;;;6214124;23;20490;-78
2021/11/15 01:26:12;;;;;;;247.77;49.20;;;7.80;99.90;;;;;;6213877;23;20416;-77
2021/11/15 01:28:40;;;;;;;271.90;54.63;;;7.80;99.90;;;;;;6225983;23;20401;-78
2021/11/15 01:31:08;;;;;;;199.73;50.13;;;7.80;99.90;;;;;;6214418;23;20510;-77
2021/11/15 01:33:36;;;;;;;202.50;48.70;;;7.80;99.90;;;;;;6216125;23;20466;-78
2021/11/15 01:36:05;;;;;;;305.87;52.40;;;7.80;99.90;;;;;;6227957;23;20972;-78
2021/11/15 01:38:34;;;;;;;215.63;39.93;;;7.80;99.90;;;;;;6216589;23;20489;-78
2021/11/15 01:41:05;;;;;;;186.90;39.87;;;7.70;99.90;;;;;;6216997;23;20892;-78
2021/11/15 01:43:33;;;;;;;315.63;48.83;;;7.70;99.90;;;;;;6216284;23;20434;-78
2021/11/15 01:46:02;;;;;;;143.07;41.30;;;7.70;99.90;;;;;;6218532;23;20452;-78
2021/11/15 01:48:30;;;;;;;157.73;42.90;;;7.70;99.90;;;;;;6216175;23;20749;-79
2021/11/15 01:50:59;;;;;;;230.47;46.63;;;7.70;99.90;;;;;;6227801;23;20408;-78
2021/11/15 01:53:27;;;;;;;159.20;38.83;;;7.70;99.90;;;;;;6217219;23;20445;-78
2021/11/15 01:55:55;;;;;;;208.07;41.83;;;7.70;99.90;;;;;;6216365;23;20423;-78
2021/11/15 01:58:26;;;;;;;119.57;40.63;;;7.70;99.90;;;;;;6216012;23;20431;-78
2021/11/15 02:00:59;;;;;;;183.90;39.90;;;7.80;99.90;;;;;;6216682;23;20496;-78
2021/11/15 02:03:29;;;;;;;281.20;58.00;;;7.70;99.90;;;;;;6215888;23;20856;-78
2021/11/15 02:05:57;;;;;;;135.40;38.33;;;7.80;99.90;;;;;;6215741;23;20463;-77
2021/11/15 02:08:26;;;;;;;169.00;43.43;;;7.70;99.90;;;;;;6215994;23;20491;-79
2021/11/15 02:10:54;;;;;;;174.10;44.47;;;7.80;99.90;;;;;;6215962;23;20921;-78
2021/11/15 02:13:25;;;;;;;166.47;46.03;;;7.70;99.90;;;;;;6215697;23;20508;-78
2021/11/15 02:15:54;;;;;;;240.43;48.00;;;7.80;99.90;;;;;;6218026;23;20386;-78
2021/11/15 02:18:24;;;;;;;183.40;45.60;;;7.80;99.90;;;;;;6215803;23;20527;-78
2021/11/15 02:20:55;;;;;;;165.57;45.03;;;7.80;99.90;;;;;;6215585;23;20419;-77
2021/11/15 02:23:25;;;;;;;185.93;48.10;;;7.80;99.90;;;;;;6215644;23;20916;-78
2021/11/15 02:25:56;;;;;;;188.00;43.53;;;7.70;99.90;;;;;;6227699;23;20387;-78
2021/11/15 02:28:26;;;;;;;235.90;45.63;;;7.70;99.90;;;;;;6215671;23;20442;-78
2021/11/15 02:30:55;;;;;;;284.53;58.77;;;7.70;99.90;;;;;;6217604;23;20405;-78
2021/11/15 02:33:23;;;;;;;186.53;41.53;;;7.70;99.90;;;;;;6217306;23;20542;-77
2021/11/15 02:35:53;;;;;;;165.60;46.90;;;7.70;99.90;;;;;;6215590;23;20496;-78
2021/11/15 02:38:21;;;;;;;197.20;42.33;;;7.70;99.90;;;;;;6215836;23;20769;-78
2021/11/15 02:40:49;;;;;;;231.27;41.70;;;7.70;99.90;;;;;;6227429;23;20485;-78
2021/11/15 02:43:17;;;;;;;264.33;48.13;;;7.70;99.90;;;;;;6214512;23;20568;-77
2021/11/15 02:45:45;;;;;;;186.33;39.60;;;7.70;99.90;;;;;;6215518;23;20800;-78
2021/11/15 02:48:14;;;;;;;229.37;47.70;;;7.70;99.90;;;;;;6215447;23;20425;-78
2021/11/15 02:50:42;;;;;;;168.33;35.53;;;7.70;99.90;;;;;;6217245;23;20416;-78
2021/11/15 02:53:12;;;;;;;279.23;48.03;;;7.70;99.90;;;;;;6227390;23;20542;-78
2021/11/15 02:55:43;;;;;;;135.30;36.40;;;7.70;99.90;;;;;;6215719;23;20796;-78
2021/11/15 02:58:12;;;;;;;218.17;38.43;;;7.60;99.90;;;;;;6215273;23;20423;-78
2021/11/15 03:00:43;;;;;;;160.70;31.37;;;7.60;99.90;;;;;;6215705;23;20457;-79
2021/11/15 03:03:13;;;;;;;202.37;42.60;;;7.60;99.90;;;;;;6226802;23;20419;-78
2021/11/15 03:05:44;;;;;;;198.73;40.90;;;7.60;99.90;;;;;;6215619;23;20508;-78
2021/11/15 03:08:14;;;;;;;146.37;32.23;;;7.60;99.90;;;;;;6215524;23;20420;-78
2021/11/15 03:10:44;;;;;;;142.27;34.13;;;7.50;99.90;;;;;;6215316;23;20417;-78
2021/11/15 03:13:14;;;;;;;150.00;38.97;;;7.50;99.90;;;;;;6226926;23;20441;-78
2021/11/15 03:15:45;;;;;;;222.63;44.57;;;7.50;99.90;;;;;;6215338;23;20920;-78
2021/11/15 03:18:15;;;;;;;217.67;43.27;;;7.50;99.90;;;;;;6215266;23;20411;-78
2021/11/15 03:20:47;;;;;;;155.87;34.03;;;7.50;99.90;;;;;;6215655;23;20506;-78
2021/11/15 03:23:21;;;;;;;177.27;33.73;;;7.50;99.90;;;;;;6215074;23;20815;-77
2021/11/15 03:25:50;;;;;;;270.03;43.97;;;7.40;99.90;;;;;;6226771;23;20392;-78
2021/11/15 03:28:20;;;;;;;115.37;35.60;;;7.40;99.90;;;;;;6216506;23;20417;-78
2021/11/15 03:30:51;;;;;;;194.33;42.03;;;7.40;99.90;;;;;;6227499;23;20442;-78
2021/11/15 03:33:20;;;;;;;108.70;29.63;;;7.50;99.90;;;;;;6217057;23;20515;-78
2021/11/15 03:35:48;;;;;;;191.47;43.83;;;7.50;99.90;;;;;;6217259;23;20459;-78
2021/11/15 03:38:18;;;;;;;191.90;39.73;;;7.50;99.90;;;;;;6215195;23;20432;-79
2021/11/15 03:40:47;;;;;;;156.20;31.70;;;7.50;99.90;;;;;;6214978;23;20475;-78
2021/11/15 03:43:15;;;;;;;174.33;34.03;;;7.50;99.90;;;;;;6214604;23;20436;-77
2021/11/15 03:45:44;;;;;;;261.97;45.63;;;7.50;99.90;;;;;;6215172;23;20419;-78
2021/11/15 03:48:14;;;;;;;191.30;33.17;;;7.40;99.90;;;;;;6214823;23;20425;-78
2021/11/15 03:50:43;;;;;;;183.83;31.17;;;7.40;99.90;;;;;;6214899;23;20419;-78
2021/11/15 03:53:14;;;;;;;135.00;29.10;;;7.50;99.90;;;;;;6214784;23;20434;-78
2021/11/15 03:55:44;;;;;;;188.63;34.10;;;7.40;99.90;;;;;;6214784;23;20416;-78
2021/11/15 03:58:12;;;;;;;208.10;31.90;;;7.50;99.90;;;;;;6214776;23;20818;-78
2021/11/15 04:00:41;;;;;;;126.47;27.97;;;7.50;99.90;;;;;;6216247;23;20405;-78
2021/11/15 04:03:17;;;;;;;222.13;41.47;;;7.50;99.90;;;;;;6226577;23;20422;-77
2021/11/15 04:05:51;;;;;;;230.53;35.23;;;7.50;99.90;;;;;;6214512;23;20472;-78
2021/11/15 04:08:19;;;;;;;136.97;30.40;;;7.50;99.90;;;;;;6214783;23;20453;-78
2021/11/15 04:10:49;;;;;;;169.03;34.63;;;7.50;99.90;;;;;;6214645;23;20499;-78
2021/11/15 04:13:19;;;;;;;133.07;30.80;;;7.50;99.90;;;;;;6215027;23;20538;-78
2021/11/15 04:15:50;;;;;;;211.40;42.17;;;7.40;99.90;;;;;;6214712;23;20884;-78
2021/11/15 04:18:20;;;;;;;215.60;43.60;;;7.40;99.90;;;;;;6214716;23;20417;-78
2021/11/15 04:20:49;;;;;;;204.23;42.47;;;7.40;99.90;;;;;;6214612;23;20806;-78
2021/11/15 04:23:17;;;;;;;150.53;41.20;;;7.40;99.90;;;;;;6216499;23;20516;-78
2021/11/15 04:25:47;;;;;;;253.33;54.73;;;7.40;99.90;;;;;;6226639;23;20429;-78
2021/11/15 04:28:17;;;;;;;238.70;62.00;;;7.40;99.90;;;;;;6226392;23;20447;-78
2021/11/15 04:30:45;;;;;;;247.00;51.33;;;7.40;99.90;;;;;;6214504;23;20490;-78
2021/11/15 04:33:14;;;;;;;134.90;53.43;;;7.40;99.90;;;;;;6214397;23;20838;-78
2021/11/15 04:35:42;;;;;;;179.40;51.60;;;7.40;99.90;;;;;;6214180;23;20905;-77
2021/11/15 04:38:11;;;;;;;198.00;61.93;;;7.40;99.90;;;;;;6214752;23;20420;-78
2021/11/15 04:40:39;;;;;;;206.60;60.40;;;7.40;99.90;;;;;;6214314;23;20890;-78
2021/11/15 04:43:07;;;;;;;181.90;62.33;;;7.30;99.90;;;;;;6214513;23;20438;-78
2021/11/15 04:45:37;;;;;;;231.00;61.30;;;7.30;99.90;;;;;;6214552;23;20413;-78
2021/11/15 04:48:06;;;;;;;192.03;69.10;;;7.30;99.90;;;;;;6214235;23;20511;-78
2021/11/15 04:50:34;;;;;;;137.03;55.83;;;7.30;99.90;;;;;;6214270;23;20467;-78
2021/11/15 04:53:04;;;;;;;199.60;64.53;;;7.30;99.90;;;;;;6216186;23;20435;-77
2021/11/15 04:55:34;;;;;;;214.10;60.03;;;7.20;99.90;;;;;;6214347;23;20508;-78
2021/11/15 04:58:02;;;;;;;206.27;58.77;;;7.20;99.90;;;;;;6214284;23;20414;-78
2021/11/15 05:00:32;;;;;;;166.13;57.53;;;7.20;99.90;;;;;;6214122;23;20445;-77
2021/11/15 05:03:02;;;;;;;177.43;55.33;;;7.20;99.90;;;;;;6214367;23;20452;-77
2021/11/15 05:05:30;;;;;;;294.37;63.23;;;7.20;99.90;;;;;;6214420;23;20456;-77
2021/11/15 05:07:58;;;;;;;254.60;65.10;;;7.20;99.90;;;;;;6214036;23;20450;-77
2021/11/15 05:10:29;;;;;;;264.83;68.23;;;7.20;99.90;;;;;;6214187;23;20492;-78
2021/11/15 05:13:01;;;;;;;268.50;58.90;;;7.20;99.90;;;;;;6214247;23;20492;-77
2021/11/15 05:15:29;;;;;;;152.03;55.63;;;7.20;99.90;;;;;;6225833;23;20908;-77
2021/11/15 05:17:58;;;;;;;179.07;59.37;;;7.10;99.90;;;;;;6215890;23;20404;-77
2021/11/15 05:20:27;;;;;;;185.43;58.67;;;7.20;99.90;;;;;;6225778;23;20478;-77
2021/11/15 05:22:55;;;;;;;309.57;72.73;;;7.20;99.90;;;;;;6225577;23;20510;-77
2021/11/15 05:25:25;;;;;;;225.07;71.27;;;7.20;99.90;;;;;;6214160;23;20446;-77
2021/11/15 05:27:55;;;;;;;113.57;54.47;;;7.20;99.90;;;;;;6226209;23;20386;-77
2021/11/15 05:30:24;;;;;;;153.10;53.70;;;7.20;99.90;;;;;;6214020;23;20508;-77
2021/11/15 05:32:55;;;;;;;304.27;68.97;;;7.20;99.90;;;;;;6214405;23;20474;-77
2021/11/15 05:35:25;;;;;;;260.20;68.50;;;7.20;99.90;;;;;;6214038;23;20431;-77
2021/11/15 05:37:56;;;;;;;253.00;55.03;;;7.20;99.90;;;;;;6225785;23;20892;-77
2021/11/15 05:40:26;;;;;;;214.77;64.67;;;7.20;99.90;;;;;;6213909;23;20410;-77
2021/11/15 05:42:55;;;;;;;199.33;56.43;;;7.20;99.90;;;;;;6214029;23;20446;-77
2021/11/15 05:45:25;;;;;;;197.87;64.13;;;7.20;99.90;;;;;;6214239;23;20493;-77
2021/11/15 05:47:56;;;;;;;240.27;61.70;;;7.20;99.90;;;;;;6214226;23;20492;-77
2021/11/15 05:50:26;;;;;;;181.57;56.30;;;7.20;99.90;;;;;;6224673;23;20484;-77
2021/11/15 05:52:57;;;;;;;188.47;59.17;;;7.20;99.90;;;;;;6213858;23;20432;-77
2021/11/15 05:55:26;;;;;;;170.30;56.23;;;7.20;99.90;;;;;;6225913;23;20469;-77
2021/11/15 05:57:55;;;;;;;169.17;57.27;;;7.20;99.90;;;;;;6213922;23;20408;-77
2021/11/15 06:00:25;;;;;;;141.97;56.40;;;7.20;99.90;;;;;;6224531;23;20706;-76
2021/11/15 06:02:55;;;;;;;246.63;64.53;;;7.20;99.90;;;;;;6214799;23;20973;-76
2021/11/15 06:05:25;;;;;;;247.53;69.83;;;7.10;99.90;;;;;;6214078;23;20766;-77
2021/11/15 06:07:53;;;;;;;165.57;61.50;;;7.10;99.90;;;;;;6226351;23;20395;-76
2021/11/15 06:10:23;;;;;;;167.13;59.50;;;7.10;99.90;;;;;;6214946;23;20425;-77
2021/11/15 06:12:52;;;;;;;175.00;54.73;;;7.10;99.90;;;;;;6214948;23;20528;-77
2021/11/15 06:15:22;;;;;;;245.83;56.03;;;7.10;99.90;;;;;;6226998;23;20520;-77
2021/11/15 06:17:51;;;;;;;148.27;55.30;;;7.10;99.90;;;;;;6215976;23;20498;-77
2021/11/15 06:20:20;;;;;;;161.87;54.47;;;7.00;99.90;;;;;;6216742;23;20423;-77
2021/11/15 06:22:48;;;;;;;190.87;56.23;;;7.00;99.90;;;;;;6216450;23;20440;-77
2021/11/15 06:25:17;;;;;;;291.80;68.33;;;7.00;99.90;;;;;;6216503;23;20498;-77
2021/11/15 06:27:47;;;;;;;252.97;61.50;;;7.00;99.90;;;;;;6215822;23;20465;-77
2021/11/15 06:30:18;;;;;;;152.10;49.23;;;7.00;99.90;;;;;;6215778;23;20408;-77
2021/11/15 06:32:46;;;;;;;159.47;49.20;;;7.00;99.90;;;;;;6215541;23;20437;-78
2021/11/15 06:35:16;;;;;;;182.53;55.93;;;7.00;99.90;;;;;;6215529;23;20929;-77
2021/11/15 06:37:45;;;;;;;252.17;64.93;;;7.00;99.90;;;;;;6215658;23;20411;-75
2021/11/15 06:40:15;;;;;;;224.53;61.13;;;7.00;99.90;;;;;;6215634;23;20423;-77
2021/11/15 06:42:44;;;;;;;210.90;51.13;;;7.00;99.90;;;;;;6216315;23;20826;-77
2021/11/15 06:45:14;;;;;;;241.83;55.13;;;7.00;99.90;;;;;;6215812;23;20490;-77
2021/11/15 06:47:43;;;;;;;219.27;60.37;;;6.90;99.90;;;;;;6227164;23;20454;-77
2021/11/15 06:50:13;;;;;;;270.43;60.97;;;6.90;99.90;;;;;;6227144;23;20734;-77
2021/11/15 06:52:41;;;;;;;259.87;58.93;;;6.90;99.90;;;;;;6215328;23;20442;-77
2021/11/15 06:55:11;;;;;;;155.17;54.10;;;6.90;99.90;;;;;;6226915;23;20428;-77
2021/11/15 06:57:40;;;;;;;119.90;44.60;;;6.90;99.90;;;;;;6217330;23;20437;-77
2021/11/15 07:00:12;;;;;;;245.03;60.50;;;6.90;99.90;;;;;;6215299;23;20827;-76
2021/11/15 07:02:48;;;;;;;157.50;48.10;;;6.90;99.90;;;;;;6215576;23;20440;-77
2021/11/15 07:05:16;;;;;;;220.30;65.77;;;6.90;99.90;;;;;;6215425;23;20435;-77
2021/11/15 07:07:45;;;;;;;192.30;58.33;;;6.90;99.90;;;;;;6216052;23;20444;-77
2021/11/15 07:10:14;;;;;;;366.83;72.37;;;6.90;99.90;;;;;;6215763;23;20414;-77
2021/11/15 07:12:43;;;;;;;240.00;62.03;;;6.90;99.90;;;;;;6215571;23;20564;-77
2021/11/15 07:15:12;;;;;;;184.90;55.47;;;6.90;99.90;;;;;;6215053;23;20431;-77
2021/11/15 07:17:40;;;;;;;221.77;56.10;;;6.90;99.90;;;;;;6215217;23;20455;-76
2021/11/15 07:20:11;;;;;;;136.83;50.70;;;6.80;99.90;;;;;;6227029;23;20733;-77
2021/11/15 07:22:40;;;;;;;62.10;43.85;;;6.90;99.90;;;;;;6214217;23;20445;-76
2021/11/15 07:25:09;;;;;;;189.57;58.17;;;6.90;99.90;;;;;;6215080;23;20167;-76
2021/11/15 07:27:38;;;;;;;225.53;68.10;;;6.90;99.90;;;;;;6215274;23;20511;-77
2021/11/15 07:30:07;;;;;;;236.80;68.67;;;6.90;99.90;;;;;;6214865;23;20410;-77
2021/11/15 07:32:35;;;;;;;250.63;61.53;;;6.90;99.90;;;;;;6215016;23;20452;-77
2021/11/15 07:35:05;;;;;;;260.23;61.03;;;6.90;99.90;;;;;;6215969;23;20434;-77
2021/11/15 07:37:35;;;;;;;257.80;59.73;;;7.00;99.90;;;;;;6215162;23;20505;-77
2021/11/15 07:40:05;;;;;;;163.20;58.80;;;7.00;99.90;;;;;;6215040;23;20416;-76
2021/11/15 07:42:33;;;;;;;206.43;64.43;;;7.00;99.90;;;;;;6226412;23;20411;-77
2021/11/15 07:45:02;;;;;;;213.23;59.77;;;7.00;99.90;;;;;;6214906;23;20451;-77
2021/11/15 07:47:30;;;;;;;187.60;59.23;;;7.00;99.90;;;;;;6227356;23;20430;-77
2021/11/15 07:49:58;;;;;;;266.27;70.43;;;7.00;99.90;;;;;;6227450;23;20401;-78
2021/11/15 07:52:27;;;;;;;257.57;64.33;;;6.90;99.90;;;;;;6216232;23;20466;-77
2021/11/15 07:54:56;;;;;;;201.20;61.50;;;6.90;99.90;;;;;;6215696;23;20437;-77
2021/11/15 07:57:24;;;;;;;308.67;65.63;;;6.90;99.90;;;;;;6217585;23;20485;-77
2021/11/15 07:59:53;;;;;;;220.30;58.40;;;6.90;99.90;;;;;;6216067;23;20423;-77
2021/11/15 08:02:22;;;;;;;293.67;71.50;;;6.90;99.90;;;;;;6215794;23;20947;-77
2021/11/15 08:04:50;;;;;;;235.53;61.37;;;6.80;99.90;;;;;;6218805;23;20407;-77
2021/11/15 08:07:20;;;;;;;162.47;55.33;;;6.90;99.90;;;;;;6220864;23;20400;-77
2021/11/15 08:09:48;;;;;;;339.40;68.97;;;6.80;99.90;;;;;;6221349;23;20418;-77
2021/11/15 08:12:21;;;;;;;293.40;66.17;;;6.90;99.90;;;;;;6220664;22;20438;-77
2021/11/15 08:14:53;;;;;;;218.77;62.47;;;6.90;99.90;;;;;;6248018;23;20432;-77
2021/11/15 08:17:21;;;;;;;244.73;62.37;;;6.90;99.90;;;;;;6220698;23;20470;-77
2021/11/15 08:19:50;;;;;;;164.03;54.53;;;6.90;99.90;;;;;;6221233;23;20418;-77
2021/11/15 08:22:18;;;;;;;173.17;58.73;;;6.90;99.90;;;;;;6247416;22;21003;-78
2021/11/15 08:25:23;;;;;;;241.27;58.40;;;6.90;99.90;;;;;;6220647;23;20459;-78
2021/11/15 08:27:53;;;;;;;291.47;63.93;;;6.90;99.90;;;;;;6220685;23;20402;-77
2021/11/15 08:30:22;;;;;;;201.80;62.53;;;6.90;99.90;;;;;;6220475;23;20413;-77
2021/11/15 08:32:53;;;;;;;204.27;60.20;;;6.90;99.90;;;;;;6220350;23;20511;-77
2021/11/15 08:35:23;;;;;;;209.13;58.73;;;6.90;99.90;;;;;;6220978;23;20427;-77
2021/11/15 08:38:24;;;;;;;245.97;66.93;;;6.90;99.90;;;;;;6220756;23;20510;-76
2021/11/15 08:40:53;;;;;;;151.23;59.80;;;7.00;99.90;;;;;;6220126;23;20450;-76
2021/11/15 08:43:23;;;;;;;215.47;64.93;;;7.00;99.90;;;;;;6220757;23;20529;-77
2021/11/15 08:45:53;;;;;;;213.87;63.83;;;7.00;99.90;;;;;;6221689;23;20398;-76
2021/11/15 08:48:21;;;;;;;233.63;69.90;;;7.00;99.90;;;;;;6247750;23;20411;-77
2021/11/15 08:50:50;;;;;;;220.63;62.17;;;7.00;99.90;;;;;;6220548;23;20445;-77
2021/11/15 08:53:18;;;;;;;335.60;75.37;;;7.00;99.90;;;;;;6220347;23;20467;-76
2021/11/15 08:55:46;;;;;;;202.57;61.83;;;7.00;99.90;;;;;;6220180;23;20469;-77
2021/11/15 08:58:14;;;;;;;250.33;61.63;;;7.00;99.90;;;;;;6219860;23;20501;-77
2021/11/15 09:00:46;;;;;;;159.33;53.53;;;7.00;99.90;;;;;;6219318;23;20423;-77
2021/11/15 09:03:16;;;;;;;325.70;71.57;;;7.00;99.90;;;;;;6219183;23;20437;-77
2021/11/15 09:05:46;;;;;;;246.33;67.37;;;7.00;99.90;;;;;;6248925;23;20825;-77
2021/11/15 09:08:14;;;;;;;176.27;58.13;;;7.00;99.90;;;;;;6219243;23;20449;-77
2021/11/15 09:10:42;;;;;;;256.63;58.23;;;7.00;99.90;;;;;;6256503;23;20429;-77
2021/11/15 09:13:11;;;;;;;232.87;60.33;;;7.10;99.90;;;;;;6257028;22;20814;-78
2021/11/15 09:15:39;;;;;;;257.40;66.67;;;7.10;99.90;;;;;;6220360;23;20438;-77
2021/11/15 09:18:09;;;;;;;167.47;53.77;;;7.00;99.90;;;;;;6219501;23;20959;-78
2021/11/15 09:20:37;;;;;;;146.33;52.53;;;7.00;99.90;;;;;;6219082;23;20467;-77
2021/11/15 09:23:06;;;;;;;153.97;55.00;;;7.00;99.90;;;;;;6219256;23;20434;-76
2021/11/15 09:25:35;;;;;;;231.77;65.63;;;7.00;99.90;;;;;;6219168;23;20500;-77
2021/11/15 09:28:04;;;;;;;233.23;61.00;;;6.90;99.90;;;;;;6256067;23;20487;-77
2021/11/15 09:30:32;;;;;;;246.03;65.60;;;6.90;99.90;;;;;;6218873;23;20468;-77
2021/11/15 09:33:03;;;;;;;141.23;61.20;;;6.90;99.90;;;;;;6243859;23;20436;-77
2021/11/15 09:35:34;;;;;;;191.53;65.10;;;7.00;99.90;;;;;;6219145;23;20435;-77
2021/11/15 09:38:03;;;;;;;198.27;59.90;;;6.90;99.90;;;;;;6256141;23;20428;-77
2021/11/15 09:40:32;;;;;;;330.93;70.60;;;6.90;99.90;;;;;;6256032;23;20400;-77
2021/11/15 09:43:00;;;;;;;253.23;62.30;;;7.00;99.90;;;;;;6219071;23;20439;-77
2021/11/15 09:45:30;;;;;;;63.13;42.72;;;7.00;99.90;;;;;;6244395;23;20476;-76
2021/11/15 09:48:00;;;;;;;280.37;74.07;;;7.10;99.90;;;;;;6218869;23;20448;-77
2021/11/15 09:50:28;;;;;;;362.57;80.50;;;7.10;99.90;;;;;;6219366;23;20423;-77
2021/11/15 09:52:58;;;;;;;337.90;74.00;;;7.10;99.90;;;;;;6257156;22;20421;-77
2021/11/15 09:55:26;;;;;;;137.90;53.20;;;7.10;99.90;;;;;;6257979;23;20436;-77
2021/11/15 09:57:54;;;;;;;245.63;69.97;;;7.10;99.90;;;;;;6246509;23;20410;-77
2021/11/15 10:00:25;;;;;;;111.10;49.73;;;7.10;99.90;;;;;;6221003;23;20405;-77
2021/11/15 10:02:53;;;;;;;244.33;63.07;;;7.10;99.90;;;;;;6220999;23;20477;-77
2021/11/15 10:05:26;;;;;;;254.90;55.83;;;7.10;99.90;;;;;;6215950;23;20759;-77
2021/11/15 10:08:05;;;;;;;195.07;52.70;;;7.10;99.90;;;;;;6228130;23;20402;-77
2021/11/15 10:10:40;;;;;;;196.03;60.53;;;7.10;99.90;;;;;;6216211;23;20414;-77
2021/11/15 10:13:26;;;;;;;212.03;57.77;;;7.10;99.90;;;;;;6216040;23;20469;-77
2021/11/15 10:16:00;;;;;;;105.17;53.10;;;7.10;99.90;;;;;;6215879;23;20484;-77
2021/11/15 10:18:50;;;;;;;327.53;76.13;;;7.10;99.90;;;;;;6216656;23;20415;-77
2021/11/15 10:21:30;;;;;;;157.97;59.63;;;7.10;99.90;;;;;;6215803;23;20800;-77
2021/11/15 10:24:03;;;;;;;234.87;67.83;;;7.10;99.90;;;;;;6215705;23;20466;-77
2021/11/15 10:26:37;;;;;;;228.77;59.53;;;7.10;99.90;;;;;;6217616;23;20399;-77
2021/11/15 10:29:10;;;;;;;311.60;66.27;;;7.10;99.90;;;;;;6215670;23;20449;-77
2021/11/15 10:31:45;;;;;;;163.33;51.60;;;7.10;99.90;;;;;;6215861;23;20735;-77
2021/11/15 10:34:24;;;;;;;217.83;58.03;;;7.10;99.90;;;;;;6216341;23;20465;-77
2021/11/15 10:37:05;;;;;;;168.80;59.17;;;7.10;99.90;;;;;;6215559;23;20519;-77
2021/11/15 10:39:42;;;;;;;202.10;62.13;;;7.10;99.90;;;;;;6227769;23;20411;-77
2021/11/15 10:42:14;;;;;;;267.67;66.97;;;7.10;99.90;;;;;;6215476;23;20493;-77
2021/11/15 10:44:53;;;;;;;254.13;73.53;;;7.10;99.90;;;;;;6215422;23;20508;-77
2021/11/15 10:47:29;;;;;;;273.40;67.87;;;7.10;99.90;;;;;;6215347;23;20471;-77
2021/11/15 10:50:19;;;;;;;152.20;54.93;;;7.10;99.90;;;;;;6228012;23;20411;-77
2021/11/15 10:52:57;;;;;;;282.20;64.27;;;7.10;99.90;;;;;;6216306;23;20449;-77
2021/11/15 10:55:27;;;;;;;246.10;63.13;;;7.10;99.90;;;;;;6215484;23;20424;-77
2021/11/15 10:57:55;;;;;;;203.63;52.90;;;7.10;99.90;;;;;;6215372;23;20462;-77
2021/11/15 11:00:28;;;;;;;221.00;60.57;;;7.10;99.90;;;;;;6215495;23;20522;-77
2021/11/15 11:03:05;;;;;;;212.67;58.73;;;7.20;99.90;;;;;;6215478;23;20490;-77
2021/11/15 11:05:36;;;;;;;230.57;56.20;;;7.20;99.90;;;;;;6238510;23;20498;-78
2021/11/15 11:08:14;;;;;;;204.17;59.73;;;7.20;99.90;;;;;;6257267;23;20377;-77
2021/11/15 11:10:57;;;;;;;196.27;67.97;;;7.20;99.90;;;;;;6245560;23;20404;-77
2021/11/15 11:13:31;;;;;;;324.43;68.90;;;7.20;99.90;;;;;;6257523;22;20420;-77
2021/11/15 11:15:59;;;;;;;141.63;51.93;;;7.20;99.90;;;;;;6258076;23;20388;-77
2021/11/15 11:18:35;;;;;;;335.13;77.30;;;7.20;99.90;;;;;;6257532;23;20982;-77
2021/11/15 11:26:57;;;;;;;252.67;62.37;;;7.20;99.90;;;;;;6220129;23;20480;-77
2021/11/15 11:29:32;;;;;;;98.10;47.07;;;7.20;99.90;;;;;;6220039;23;20438;-77
2021/11/15 11:32:05;;;;;;;256.67;57.40;;;7.20;99.90;;;;;;6247232;22;20785;-77
2021/11/15 11:34:34;;;;;;;159.63;53.83;;;7.20;99.90;;;;;;6220188;23;20918;-77
2021/11/15 11:37:05;;;;;;;198.17;60.20;;;7.20;99.90;;;;;;6219939;23;20438;-77
2021/11/15 11:39:35;;;;;;;277.63;65.23;;;7.20;99.90;;;;;;6220049;23;20455;-77
2021/11/15 11:42:07;;;;;;;151.63;54.03;;;7.20;99.90;;;;;;6221243;22;20420;-77
2021/11/15 11:44:37;;;;;;;122.03;55.17;;;7.20;99.90;;;;;;6257712;23;20383;-77
2021/11/15 11:47:07;;;;;;;183.07;57.57;;;7.20;99.90;;;;;;6257866;23;20776;-77
2021/11/15 11:49:38;;;;;;;172.60;55.93;;;7.20;99.90;;;;;;6256880;23;20780;-77
2021/11/15 11:52:09;;;;;;;348.77;71.77;;;7.20;99.90;;;;;;6219693;22;20418;-77
2021/11/15 11:54:40;;;;;;;329.60;67.30;;;7.20;99.90;;;;;;6220049;23;20412;-77
2021/11/15 11:57:13;;;;;;;196.27;52.37;;;7.10;99.90;;;;;;6219956;23;20434;-78
2021/11/15 11:59:59;;;;;;;175.17;59.13;;;7.10;99.90;;;;;;6219593;23;20849;-77
2021/11/15 12:02:30;;;;;;;204.07;56.00;;;7.10;99.90;;;;;;6220519;23;20437;-77
2021/11/15 12:05:02;;;;;;;242.93;57.43;;;7.10;99.90;;;;;;6253370;23;20496;-77
2021/11/15 12:07:33;;;;;;;213.37;58.63;;;7.10;99.90;;;;;;6219989;23;20468;-78
2021/11/15 12:10:03;;;;;;;202.50;62.27;;;7.10;99.90;;;;;;6219799;23;20736;-77
2021/11/15 12:12:57;;;;;;;207.47;61.27;;;7.10;99.90;;;;;;6257141;22;20445;-77
2021/11/15 12:15:30;;;;;;;193.03;61.50;;;7.10;99.90;;;;;;6220468;23;20464;-77
2021/11/15 12:18:06;;;;;;;199.83;58.23;;;7.10;99.90;;;;;;6246710;23;20786;-77
2021/11/15 12:20:35;;;;;;;249.23;70.23;;;7.20;99.90;;;;;;6256727;23;20459;-77
2021/11/15 12:23:13;;;;;;;102.67;47.93;;;7.10;99.90;;;;;;6256614;22;20760;-77
2021/11/15 12:26:01;;;;;;;288.53;70.63;;;7.20;99.90;;;;;;6219748;23;20444;-77
2021/11/15 12:28:31;;;;;;;255.43;60.70;;;7.20;99.90;;;;;;6219523;23;20409;-77
2021/11/15 12:31:00;;;;;;;196.93;63.50;;;7.20;99.90;;;;;;6219662;23;20418;-78
2021/11/15 12:33:29;;;;;;;259.53;61.50;;;7.20;99.90;;;;;;6256540;22;20514;-78
2021/11/15 12:36:02;;;;;;;176.23;58.43;;;7.20;99.90;;;;;;6219613;23;20406;-77
2021/11/15 12:38:44;;;;;;;296.47;62.63;;;7.20;99.90;;;;;;6245485;23;20427;-77
2021/11/15 12:41:34;;;;;;;320.27;78.50;;;7.20;99.90;;;;;;6246649;23;20786;-77
2021/11/15 12:44:29;;;;;;;246.77;62.10;;;7.20;99.90;;;;;;6219411;23;20478;-77
2021/11/15 12:47:01;;;;;;;316.40;77.70;;;7.30;99.90;;;;;;6219649;23;20738;-77
2021/11/15 12:49:36;;;;;;;270.90;66.10;;;7.30;99.90;;;;;;6256867;23;20410;-78
2021/11/15 12:52:21;;;;;;;319.33;72.37;;;7.30;99.90;;;;;;6244553;22;20483;-77